Time;durP1;ratioP1;P1;durP2;ratioP2;P2;SDS_P1;SDS_P2;PMS_P1;PMS_P2;Temp;Humidity;BMP_temperature;BMP_pressure;BME280_temperature;BME280_humidity;BME280_pressure;Samples;Min_cycle;Max_cycle;Signal;HPM_P1;HPM_P2
2023/09/02 00:01:09;;;;;;;5.63;2.00;;;24.30;48.90;;;;;;7590862;23;20006;-73
2023/09/02 00:04:10;;;;;;;12.70;1.75;;;24.30;49.10;;;;;;7563943;23;20018;-74
2023/09/02 00:07:11;;;;;;;11.75;1.70;;;24.30;49.20;;;;;;7590913;23;20676;-74
2023/09/02 00:10:12;;;;;;;4.15;1.63;;;24.30;49.30;;;;;;7590530;23;20110;-74
2023/09/02 00:13:13;;;;;;;6.60;1.90;;;24.20;49.30;;;;;;7590699;23;20372;-74
2023/09/02 00:16:14;;;;;;;7.15;2.15;;;24.20;49.40;;;;;;7564457;23;20010;-73
2023/09/02 00:19:14;;;;;;;3.40;1.77;;;24.20;49.60;;;;;;7564276;23;20170;-74
2023/09/02 00:22:15;;;;;;;7.80;1.83;;;24.20;49.80;;;;;;7590498;23;20423;-75
2023/09/02 00:25:16;;;;;;;7.45;1.92;;;24.20;49.90;;;;;;7590644;23;20068;-74
2023/09/02 00:28:17;;;;;;;3.47;1.98;;;24.10;49.90;;;;;;7590775;23;20021;-74
2023/09/02 00:31:18;;;;;;;5.60;2.30;;;24.10;50.00;;;;;;7564270;23;20032;-74
2023/09/02 00:34:18;;;;;;;3.35;1.95;;;24.10;50.00;;;;;;7540250;23;20687;-74
2023/09/02 00:37:19;;;;;;;3.70;1.80;;;24.10;50.00;;;;;;7541283;23;20021;-75
2023/09/02 00:40:22;;;;;;;6.40;2.13;;;24.10;50.10;;;;;;7566366;23;20022;-73
2023/09/02 00:43:23;;;;;;;4.07;1.60;;;24.10;50.10;;;;;;7593350;23;20016;-74
2023/09/02 00:46:24;;;;;;;5.32;2.00;;;24.10;50.10;;;;;;7592852;23;20010;-74
2023/09/02 00:49:25;;;;;;;3.17;1.67;;;24.10;50.20;;;;;;7592614;23;20650;-74
2023/09/02 00:52:26;;;;;;;4.88;1.90;;;24.00;50.10;;;;;;7592475;23;20014;-74
2023/09/02 00:55:27;;;;;;;6.78;1.90;;;24.00;50.30;;;;;;7542055;23;20363;-74
2023/09/02 00:58:28;;;;;;;2.38;1.52;;;24.00;50.30;;;;;;7592808;23;20096;-74
2023/09/02 01:01:31;;;;;;;4.15;2.00;;;24.00;50.40;;;;;;7592421;23;20005;-75
2023/09/02 01:04:32;;;;;;;3.50;2.00;;;24.00;50.40;;;;;;7592642;23;20017;-74
2023/09/02 01:07:34;;;;;;;5.03;2.03;;;24.00;50.50;;;;;;7566589;23;20014;-74
2023/09/02 01:10:37;;;;;;;4.95;2.05;;;23.90;50.60;;;;;;7592311;23;20148;-73
2023/09/02 01:13:37;;;;;;;3.55;1.77;;;23.90;50.90;;;;;;7566493;23;20013;-73
2023/09/02 01:16:38;;;;;;;5.10;2.20;;;23.90;51.00;;;;;;7592494;23;20013;-75
2023/09/02 01:19:40;;;;;;;6.32;2.22;;;23.80;51.20;;;;;;7565981;23;20041;-74
2023/09/02 01:23:09;;;;;;;6.50;1.83;;;23.80;51.30;;;;;;7565597;23;20021;-75
2023/09/02 01:26:41;;;;;;;7.80;2.03;;;23.70;51.50;;;;;;7592347;23;20006;-74
2023/09/02 01:29:53;;;;;;;4.07;1.83;;;23.60;51.60;;;;;;7591965;23;20028;-74
2023/09/02 01:32:55;;;;;;;5.03;1.58;;;23.60;51.80;;;;;;7565936;23;20017;-74
2023/09/02 01:35:58;;;;;;;3.58;1.52;;;23.60;52.10;;;;;;7565693;23;20018;-73
2023/09/02 01:39:00;;;;;;;3.33;1.55;;;23.50;52.10;;;;;;7565841;23;20084;-74
2023/09/02 01:42:01;;;;;;;5.10;2.25;;;23.50;52.20;;;;;;7591852;23;20614;-74
2023/09/02 01:45:03;;;;;;;6.30;1.77;;;23.40;52.30;;;;;;7592095;23;20018;-75
2023/09/02 01:48:05;;;;;;;3.15;1.55;;;23.40;52.50;;;;;;7591764;23;20013;-74
2023/09/02 01:51:06;;;;;;;3.72;1.80;;;23.40;52.50;;;;;;7565175;23;20018;-74
2023/09/02 01:54:07;;;;;;;4.18;1.90;;;23.40;52.50;;;;;;7565785;23;20018;-74
2023/09/02 01:57:08;;;;;;;3.35;1.55;;;23.40;52.50;;;;;;7564777;23;20090;-74
2023/09/02 02:00:11;;;;;;;2.88;1.52;;;23.40;52.60;;;;;;7564795;23;20010;-73
2023/09/02 02:03:24;;;;;;;5.03;1.60;;;23.30;52.50;;;;;;7591968;23;20093;-75
2023/09/02 02:06:26;;;;;;;7.00;2.10;;;23.30;52.60;;;;;;7565666;23;20033;-73
2023/09/02 02:09:33;;;;;;;9.02;1.85;;;23.30;52.60;;;;;;7591228;23;20115;-74
2023/09/02 02:12:35;;;;;;;5.15;1.90;;;23.20;52.60;;;;;;7591952;23;20347;-74
2023/09/02 02:15:36;;;;;;;5.90;2.10;;;23.20;52.70;;;;;;7591967;23;20022;-73
2023/09/02 02:18:37;;;;;;;7.68;2.38;;;23.20;52.70;;;;;;7591958;23;20009;-73
2023/09/02 02:21:38;;;;;;;4.40;1.83;;;23.20;52.80;;;;;;7565216;23;20109;-74
2023/09/02 02:24:38;;;;;;;10.95;2.42;;;23.20;52.70;;;;;;7591910;23;20090;-73
2023/09/02 02:27:39;;;;;;;6.05;2.00;;;23.10;52.70;;;;;;7564727;23;20037;-73
2023/09/02 02:30:40;;;;;;;6.70;2.15;;;23.10;52.90;;;;;;7591350;23;20084;-74
2023/09/02 02:33:41;;;;;;;6.10;1.90;;;23.10;53.00;;;;;;7565048;23;20411;-74
2023/09/02 02:36:41;;;;;;;8.68;1.85;;;23.10;53.10;;;;;;7565002;23;20033;-73
2023/09/02 02:39:42;;;;;;;5.30;2.25;;;23.10;53.10;;;;;;7591261;23;20045;-73
2023/09/02 02:42:43;;;;;;;6.65;2.22;;;23.10;53.20;;;;;;7565115;23;20428;-74
2023/09/02 02:45:44;;;;;;;4.22;2.28;;;23.00;53.30;;;;;;7591748;23;20088;-74
2023/09/02 02:48:45;;;;;;;9.88;2.10;;;23.00;53.30;;;;;;7565404;23;20072;-73
2023/09/02 02:51:46;;;;;;;5.18;2.17;;;22.90;53.30;;;;;;7565043;23;20081;-74
2023/09/02 02:54:47;;;;;;;3.22;1.70;;;23.00;53.40;;;;;;7565126;23;20121;-73
2023/09/02 02:57:48;;;;;;;12.13;1.80;;;23.00;53.50;;;;;;7564151;23;20014;-74
2023/09/02 03:00:49;;;;;;;3.65;2.00;;;23.00;53.60;;;;;;7540042;23;20270;-76
2023/09/02 03:03:52;;;;;;;3.88;1.63;;;23.00;53.80;;;;;;7590554;23;20014;-74
2023/09/02 03:06:53;;;;;;;3.10;1.70;;;23.00;53.90;;;;;;7563931;23;20020;-74
2023/09/02 03:09:54;;;;;;;7.90;1.75;;;22.90;54.10;;;;;;7590692;23;20010;-74
2023/09/02 03:12:55;;;;;;;3.85;1.77;;;22.80;54.20;;;;;;7564753;23;20014;-74
2023/09/02 03:15:56;;;;;;;4.18;2.17;;;22.80;54.40;;;;;;7541070;23;20020;-74
2023/09/02 03:18:57;;;;;;;4.55;2.28;;;22.70;54.70;;;;;;7590988;23;20006;-74
2023/09/02 03:22:00;;;;;;;3.33;1.67;;;22.60;54.80;;;;;;7564099;23;20021;-73
2023/09/02 03:25:01;;;;;;;4.78;1.80;;;22.50;54.90;;;;;;7540412;23;20296;-74
2023/09/02 03:28:02;;;;;;;5.50;1.88;;;22.50;55.10;;;;;;7564268;23;20072;-74
2023/09/02 03:31:05;;;;;;;9.48;2.15;;;22.50;55.20;;;;;;7564905;23;20009;-74
2023/09/02 03:34:06;;;;;;;4.63;2.17;;;22.50;55.50;;;;;;7564070;23;20340;-74
2023/09/02 03:37:07;;;;;;;3.67;1.83;;;22.40;55.60;;;;;;7591022;23;20148;-75
2023/09/02 03:40:08;;;;;;;4.80;1.98;;;22.40;55.90;;;;;;7590249;23;20084;-73
2023/09/02 03:43:09;;;;;;;4.43;2.30;;;22.30;56.10;;;;;;7564279;23;20033;-74
2023/09/02 03:46:10;;;;;;;5.50;1.80;;;22.30;56.20;;;;;;7563892;23;20503;-73
2023/09/02 03:49:11;;;;;;;6.00;2.20;;;22.20;56.40;;;;;;7590914;23;20348;-76
2023/09/02 03:52:15;;;;;;;3.03;1.77;;;22.20;56.50;;;;;;7540281;23;20036;-74
2023/09/02 03:55:16;;;;;;;3.88;1.88;;;22.10;56.60;;;;;;7563694;23;20444;-73
2023/09/02 03:58:17;;;;;;;4.30;2.20;;;22.00;57.00;;;;;;7563508;23;20018;-75
2023/09/02 04:01:18;;;;;;;10.20;2.13;;;21.90;57.30;;;;;;7563760;23;20010;-74
2023/09/02 04:04:20;;;;;;;5.35;2.03;;;21.90;57.60;;;;;;7563782;23;20091;-74
2023/09/02 04:07:21;;;;;;;5.20;2.00;;;21.80;57.70;;;;;;7564130;23;20456;-74
2023/09/02 04:10:22;;;;;;;5.70;2.10;;;21.70;58.00;;;;;;7589954;23;20379;-74
2023/09/02 04:13:25;;;;;;;7.28;2.15;;;21.70;58.10;;;;;;7592584;23;20033;-76
2023/09/02 04:16:27;;;;;;;2.70;2.00;;;21.60;58.20;;;;;;7567010;23;20612;-74
2023/09/02 04:19:28;;;;;;;9.48;2.15;;;21.60;58.30;;;;;;7566520;23;20010;-74
2023/09/02 04:22:29;;;;;;;9.00;2.47;;;21.60;58.40;;;;;;7567556;23;20077;-74
2023/09/02 04:25:31;;;;;;;3.40;1.70;;;21.60;58.40;;;;;;7567149;23;20065;-74
2023/09/02 04:28:32;;;;;;;7.15;2.28;;;21.60;58.30;;;;;;7593922;23;20622;-74
2023/09/02 04:31:33;;;;;;;10.63;2.42;;;21.60;58.20;;;;;;7593602;23;20021;-74
2023/09/02 04:34:34;;;;;;;5.47;2.50;;;21.60;58.10;;;;;;7593648;23;20129;-74
2023/09/02 04:37:35;;;;;;;7.10;2.20;;;21.70;58.10;;;;;;7567239;23;20077;-74
2023/09/02 04:40:40;;;;;;;4.07;2.17;;;21.70;58.10;;;;;;7566504;23;20447;-74
2023/09/02 04:43:42;;;;;;;6.30;2.30;;;21.70;58.20;;;;;;7566801;23;20127;-72
2023/09/02 04:46:44;;;;;;;7.00;2.40;;;21.70;58.40;;;;;;7566409;23;20036;-74
2023/09/02 04:49:45;;;;;;;4.18;2.30;;;21.60;58.50;;;;;;7592854;23;20018;-74
2023/09/02 04:52:47;;;;;;;9.98;3.15;;;21.60;58.60;;;;;;7542676;23;20713;-74
2023/09/02 04:55:48;;;;;;;5.25;2.30;;;21.60;58.60;;;;;;7542871;23;20106;-74
2023/09/02 04:58:52;;;;;;;4.97;2.35;;;21.60;58.60;;;;;;7566295;23;20006;-74
2023/09/02 05:01:55;;;;;;;7.43;2.38;;;21.60;58.70;;;;;;7542758;23;20420;-73
2023/09/02 05:04:56;;;;;;;9.32;2.38;;;21.60;59.30;;;;;;7566133;23;20021;-73
2023/09/02 05:07:57;;;;;;;10.65;2.70;;;21.60;58.70;;;;;;7566908;23;20013;-74
2023/09/02 05:11:00;;;;;;;4.60;2.53;;;21.60;58.70;;;;;;7566182;23;20100;-74
2023/09/02 05:14:01;;;;;;;4.32;2.00;;;21.60;58.60;;;;;;7566745;23;20021;-74
2023/09/02 05:17:02;;;;;;;7.13;2.40;;;21.60;58.60;;;;;;7592668;23;20006;-74
2023/09/02 05:20:05;;;;;;;5.10;2.47;;;21.70;58.50;;;;;;7542509;23;20036;-73
2023/09/02 05:23:08;;;;;;;5.43;2.20;;;21.70;58.50;;;;;;7566253;23;20093;-73
2023/09/02 05:26:09;;;;;;;4.47;2.30;;;21.70;58.50;;;;;;7566168;23;20014;-73
2023/09/02 05:29:10;;;;;;;3.35;2.10;;;21.70;58.50;;;;;;7566789;23;20014;-74
2023/09/02 05:32:13;;;;;;;3.95;2.03;;;21.60;58.40;;;;;;7566372;23;20522;-75
2023/09/02 05:35:14;;;;;;;4.55;2.25;;;21.70;58.50;;;;;;7566245;23;20037;-73
2023/09/02 05:38:14;;;;;;;4.65;1.70;;;21.70;58.40;;;;;;7565726;23;20471;-74
2023/09/02 05:41:15;;;;;;;4.45;2.20;;;21.70;58.40;;;;;;7592138;23;20020;-75
2023/09/02 05:44:16;;;;;;;6.72;2.40;;;21.80;58.40;;;;;;7565993;23;20096;-74
2023/09/02 05:47:17;;;;;;;13.35;2.30;;;21.80;58.30;;;;;;7592640;23;20006;-74
2023/09/02 05:50:18;;;;;;;7.68;2.17;;;21.80;58.30;;;;;;7592158;23;20091;-73
2023/09/02 05:53:18;;;;;;;11.10;2.13;;;21.80;58.30;;;;;;7592722;23;20463;-75
2023/09/02 05:56:19;;;;;;;3.75;2.20;;;21.90;58.20;;;;;;7592638;23;20077;-74
2023/09/02 05:59:20;;;;;;;5.43;2.10;;;21.80;58.10;;;;;;7592547;23;20378;-74
2023/09/02 06:02:21;;;;;;;6.38;2.22;;;21.70;58.20;;;;;;7592717;23;20017;-74
2023/09/02 06:05:22;;;;;;;7.50;2.50;;;21.80;58.30;;;;;;7592634;23;20068;-73
2023/09/02 06:08:23;;;;;;;4.88;2.33;;;21.70;58.30;;;;;;7592851;23;20045;-74
2023/09/02 06:11:23;;;;;;;5.90;2.33;;;21.70;58.40;;;;;;7592450;23;20065;-74
2023/09/02 06:14:24;;;;;;;7.82;2.20;;;21.70;58.40;;;;;;7566313;23;20070;-75
2023/09/02 06:17:30;;;;;;;4.93;2.40;;;21.70;58.40;;;;;;7592197;23;20028;-75
2023/09/02 06:20:31;;;;;;;8.15;3.08;;;21.70;58.50;;;;;;7591961;23;20017;-74
2023/09/02 06:23:32;;;;;;;5.00;2.33;;;21.70;58.60;;;;;;7592219;23;20108;-74
2023/09/02 06:26:33;;;;;;;5.50;3.20;;;21.70;58.60;;;;;;7565775;23;20025;-75
2023/09/02 06:29:34;;;;;;;14.63;3.53;;;21.80;58.60;;;;;;7564871;23;20014;-73
2023/09/02 06:32:35;;;;;;;9.35;3.83;;;21.80;58.60;;;;;;7565562;23;20014;-74
2023/09/02 06:35:36;;;;;;;9.98;3.00;;;21.80;58.40;;;;;;7591714;23;20025;-74
2023/09/02 06:38:36;;;;;;;9.93;3.70;;;21.90;58.50;;;;;;7591782;23;20032;-73
2023/09/02 06:41:37;;;;;;;8.73;2.47;;;21.90;58.30;;;;;;7591491;23;20119;-76
2023/09/02 06:44:38;;;;;;;11.40;2.90;;;21.90;58.20;;;;;;7592208;23;20010;-75
2023/09/02 06:47:39;;;;;;;8.13;2.40;;;22.00;58.10;;;;;;7565011;23;20062;-74
2023/09/02 06:50:40;;;;;;;4.60;2.17;;;22.10;58.00;;;;;;7591031;23;20014;-75
2023/09/02 06:53:41;;;;;;;7.72;2.65;;;22.20;57.90;;;;;;7591514;23;20086;-73
2023/09/02 06:56:42;;;;;;;5.72;2.33;;;22.30;58.10;;;;;;7565102;23;20037;-74
2023/09/02 06:59:43;;;;;;;5.00;2.40;;;22.40;57.50;;;;;;7564998;23;20041;-74
2023/09/02 07:02:43;;;;;;;5.90;2.67;;;22.40;57.30;;;;;;7591213;23;20557;-74
2023/09/02 07:05:44;;;;;;;5.22;2.42;;;22.50;57.20;;;;;;7564336;23;20113;-74
2023/09/02 07:08:45;;;;;;;8.88;2.92;;;22.60;57.00;;;;;;7590894;23;20026;-74
2023/09/02 07:11:46;;;;;;;10.88;3.00;;;22.70;56.70;;;;;;7565031;23;20021;-74
2023/09/02 07:14:47;;;;;;;9.13;2.50;;;22.80;56.50;;;;;;7591502;23;20006;-74
2023/09/02 07:17:48;;;;;;;3.58;2.50;;;22.90;56.30;;;;;;7591359;23;20013;-74
2023/09/02 07:20:48;;;;;;;8.13;2.55;;;23.00;56.60;;;;;;7590679;23;20506;-75
2023/09/02 07:23:50;;;;;;;4.22;2.20;;;23.10;55.90;;;;;;7590452;23;20085;-75
2023/09/02 07:26:51;;;;;;;4.70;2.75;;;23.30;55.70;;;;;;7590633;23;20199;-74
2023/09/02 07:29:52;;;;;;;10.82;2.65;;;23.30;55.40;;;;;;7590453;23;20443;-74
2023/09/02 07:32:53;;;;;;;6.57;2.70;;;23.50;55.10;;;;;;7563902;23;20526;-74
2023/09/02 07:35:53;;;;;;;8.50;3.10;;;23.60;54.90;;;;;;7563933;23;20517;-75
2023/09/02 07:38:54;;;;;;;8.40;3.00;;;23.60;54.60;;;;;;7564292;23;20457;-74
2023/09/02 07:41:55;;;;;;;8.50;3.60;;;23.70;54.50;;;;;;7590152;23;20092;-73
2023/09/02 07:44:56;;;;;;;6.00;2.95;;;23.80;54.30;;;;;;7590552;23;20005;-75
2023/09/02 07:47:57;;;;;;;9.27;3.20;;;24.10;54.00;;;;;;7563438;23;20010;-75
2023/09/02 07:50:57;;;;;;;7.10;2.80;;;24.20;53.60;;;;;;7563967;23;20096;-75
2023/09/02 07:53:58;;;;;;;5.07;1.98;;;24.40;53.40;;;;;;7590480;23;20017;-74
2023/09/02 07:57:00;;;;;;;3.95;1.90;;;24.50;53.00;;;;;;7564297;23;20013;-74
2023/09/02 08:00:00;;;;;;;9.02;3.10;;;24.70;52.80;;;;;;7563493;23;20021;-74
2023/09/02 08:03:02;;;;;;;8.02;3.00;;;24.80;52.60;;;;;;7590703;23;20153;-74
2023/09/02 08:06:08;;;;;;;9.48;2.88;;;24.90;52.30;;;;;;7563488;23;20041;-73
2023/09/02 08:09:09;;;;;;;5.45;2.40;;;25.00;52.10;;;;;;7590673;23;20318;-74
2023/09/02 08:12:11;;;;;;;8.75;2.65;;;25.10;52.00;;;;;;7589834;23;20010;-75
2023/09/02 08:15:13;;;;;;;9.40;2.63;;;25.20;51.70;;;;;;7563996;23;20033;-74
2023/09/02 08:18:13;;;;;;;7.32;2.00;;;25.30;51.30;;;;;;7590639;23;20014;-75
2023/09/02 08:21:14;;;;;;;4.53;2.50;;;25.50;51.10;;;;;;7590630;23;20006;-76
2023/09/02 08:24:15;;;;;;;4.03;2.25;;;25.50;50.70;;;;;;7590944;23;20184;-75
2023/09/02 08:27:16;;;;;;;9.23;3.17;;;25.60;50.50;;;;;;7564037;23;20018;-73
2023/09/02 08:30:16;;;;;;;5.78;2.13;;;25.70;50.30;;;;;;7590072;23;20117;-74
2023/09/02 08:33:17;;;;;;;9.07;2.78;;;25.80;50.00;;;;;;7589572;23;20384;-75
2023/09/02 08:36:18;;;;;;;6.22;2.38;;;25.90;49.60;;;;;;7589917;23;20096;-74
2023/09/02 08:39:19;;;;;;;4.75;2.20;;;26.00;49.30;;;;;;7563079;23;20317;-74
2023/09/02 08:42:20;;;;;;;10.45;2.35;;;26.20;49.10;;;;;;7563203;23;20408;-75
2023/09/02 08:45:22;;;;;;;10.35;1.85;;;26.30;48.70;;;;;;7563774;23;20068;-75
2023/09/02 08:48:23;;;;;;;6.72;2.13;;;26.40;48.30;;;;;;7563311;23;20033;-74
2023/09/02 08:51:26;;;;;;;11.07;2.38;;;26.50;48.20;;;;;;7563473;23;20089;-74
2023/09/02 08:54:28;;;;;;;8.20;2.72;;;26.50;48.10;;;;;;7563300;23;20010;-74
2023/09/02 08:57:29;;;;;;;3.95;2.20;;;26.60;48.20;;;;;;7590635;23;20017;-74
2023/09/02 09:00:31;;;;;;;12.43;2.88;;;26.70;48.10;;;;;;7591754;23;20054;-74
2023/09/02 09:03:34;;;;;;;4.85;1.85;;;26.80;48.00;;;;;;7592099;23;20010;-74
2023/09/02 09:06:37;;;;;;;4.50;2.20;;;26.80;47.80;;;;;;7565297;23;20013;-74
2023/09/02 09:09:39;;;;;;;2.63;1.67;;;26.90;47.90;;;;;;7591812;23;20010;-74
2023/09/02 09:12:42;;;;;;;4.25;2.13;;;27.00;47.90;;;;;;7591658;23;20010;-74
2023/09/02 09:15:45;;;;;;;4.75;1.90;;;27.10;47.60;;;;;;7592246;23;20028;-74
2023/09/02 09:18:46;;;;;;;9.18;2.47;;;27.20;47.30;;;;;;7565892;23;20021;-74
2023/09/02 09:21:47;;;;;;;3.30;1.88;;;27.30;46.90;;;;;;7591484;23;20060;-75
2023/09/02 09:24:47;;;;;;;4.85;2.17;;;27.40;46.70;;;;;;7591403;23;20097;-74
2023/09/02 09:27:49;;;;;;;3.22;1.85;;;27.50;46.60;;;;;;7541473;23;20013;-74
2023/09/02 09:30:50;;;;;;;8.57;2.17;;;27.70;46.40;;;;;;7590911;23;20021;-75
2023/09/02 09:33:59;;;;;;;4.60;2.00;;;27.80;46.10;;;;;;7591701;23;20580;-75
2023/09/02 09:37:00;;;;;;;6.15;2.05;;;28.00;45.90;;;;;;7565333;23;20013;-74
2023/09/02 09:40:01;;;;;;;5.25;1.92;;;28.10;45.60;;;;;;7591655;23;20122;-75
2023/09/02 09:43:15;;;;;;;7.28;1.75;;;28.20;45.30;;;;;;7565788;23;20043;-75
2023/09/02 09:46:17;;;;;;;6.10;1.85;;;28.20;45.00;;;;;;7591570;23;20074;-73
2023/09/02 09:49:28;;;;;;;2.95;1.55;;;28.20;44.90;;;;;;7591784;23;20010;-75
2023/09/02 09:52:34;;;;;;;4.82;1.90;;;28.30;44.90;;;;;;7591129;23;20084;-75
2023/09/02 09:55:43;;;;;;;6.00;1.63;;;28.30;44.80;;;;;;7591562;23;20324;-74
2023/09/02 09:58:49;;;;;;;2.22;1.38;;;28.40;44.70;;;;;;7591416;23;20058;-75
2023/09/02 10:01:57;;;;;;;9.13;1.60;;;28.50;44.50;;;;;;7591557;23;20397;-75
2023/09/02 10:05:02;;;;;;;5.25;1.80;;;28.50;44.30;;;;;;7590996;23;20034;-75
2023/09/02 10:08:05;;;;;;;5.47;1.70;;;28.60;44.10;;;;;;7591493;23;20077;-75
2023/09/02 10:11:23;;;;;;;6.95;2.10;;;28.70;43.90;;;;;;7564182;23;20021;-73
2023/09/02 10:14:24;;;;;;;7.45;1.70;;;28.80;43.50;;;;;;7541085;23;20016;-74
2023/09/02 10:17:25;;;;;;;2.75;1.55;;;28.90;43.20;;;;;;7564721;23;20010;-74
2023/09/02 10:20:30;;;;;;;4.80;1.70;;;29.00;43.10;;;;;;7564205;23;20063;-74
2023/09/02 10:23:32;;;;;;;3.20;1.80;;;29.10;42.90;;;;;;7591531;23;20065;-73
2023/09/02 10:26:44;;;;;;;4.25;1.85;;;29.10;42.50;;;;;;7591124;23;20060;-75
2023/09/02 10:29:50;;;;;;;3.40;1.60;;;29.20;42.40;;;;;;7564347;23;20073;-75
2023/09/02 10:32:57;;;;;;;3.22;1.80;;;29.30;42.20;;;;;;7591659;23;20017;-75
2023/09/02 10:36:00;;;;;;;4.03;1.60;;;29.40;41.90;;;;;;7591501;23;20006;-74
2023/09/02 10:39:03;;;;;;;5.97;1.90;;;29.40;41.70;;;;;;7590842;23;20349;-74
2023/09/02 10:42:07;;;;;;;3.45;1.83;;;29.50;41.70;;;;;;7591127;23;20096;-75
2023/09/02 10:45:12;;;;;;;5.03;2.10;;;29.50;41.60;;;;;;7590791;23;20012;-74
2023/09/02 10:48:16;;;;;;;3.72;1.75;;;29.60;41.30;;;;;;7591119;23;20018;-76
2023/09/02 10:51:22;;;;;;;3.00;1.58;;;29.80;41.10;;;;;;7590548;23;20009;-74
2023/09/02 10:55:03;;;;;;;2.08;1.48;;;30.00;40.80;;;;;;7590649;23;20018;-74
2023/09/02 10:58:08;;;;;;;2.10;1.50;;;30.30;40.50;;;;;;7591003;23;20039;-74
2023/09/02 11:01:09;;;;;;;9.13;2.13;;;30.60;40.20;;;;;;7590659;23;20017;-74
2023/09/02 11:04:10;;;;;;;2.38;1.60;;;30.80;39.70;;;;;;7590627;23;20500;-75
2023/09/02 11:07:22;;;;;;;3.78;1.58;;;30.90;39.50;;;;;;7590619;23;20021;-74
2023/09/02 11:10:54;;;;;;;6.22;1.65;;;31.10;39.10;;;;;;7590100;23;20034;-74
2023/09/02 11:14:25;;;;;;;3.28;1.67;;;31.30;38.80;;;;;;7564161;23;20014;-74
2023/09/02 11:17:29;;;;;;;4.57;1.70;;;31.50;38.70;;;;;;7477848;23;20493;-74
2023/09/02 11:20:48;;;;;;;3.65;2.08;;;31.70;38.20;;;;;;7478271;23;20019;-74
2023/09/02 11:23:50;;;;;;;6.97;1.80;;;32.00;37.90;;;;;;7478234;23;20520;-75
2023/09/02 11:26:55;;;;;;;5.18;1.70;;;32.20;37.40;;;;;;7478720;23;20086;-74
2023/09/02 11:30:09;;;;;;;5.07;1.48;;;32.50;36.90;;;;;;7477917;23;20045;-75
2023/09/02 11:33:17;;;;;;;4.43;1.92;;;32.70;36.30;;;;;;7479025;23;20522;-73
2023/09/02 11:36:18;;;;;;;;;;;32.90;35.80;;;;;;7479082;23;20086;-74
2023/09/02 11:39:24;;;;;;;3.20;1.88;;;33.00;35.70;;;;;;7478864;23;20316;-75
2023/09/02 11:42:27;;;;;;;5.32;1.70;;;33.30;35.40;;;;;;7478724;23;20094;-74
2023/09/02 11:45:31;;;;;;;5.68;2.10;;;33.50;35.00;;;;;;7478926;23;20189;-75
2023/09/02 11:48:32;;;;;;;2.65;1.40;;;33.80;34.40;;;;;;7479461;23;20699;-74
2023/09/02 11:51:33;;;;;;;3.67;1.30;;;34.10;33.90;;;;;;7478380;23;20310;-74
2023/09/02 11:54:37;;;;;;;3.00;1.40;;;34.30;33.10;;;;;;7552171;23;20061;-76
2023/09/02 11:57:38;;;;;;;2.70;1.40;;;34.50;32.70;;;;;;7590346;23;20116;-75
2023/09/02 12:00:44;;;;;;;5.25;1.73;;;34.90;32.30;;;;;;7563581;23;20025;-74
2023/09/02 12:03:47;;;;;;;3.65;1.85;;;35.20;31.60;;;;;;7590380;23;20064;-75
2023/09/02 12:06:49;;;;;;;4.25;1.50;;;35.50;30.90;;;;;;7589718;23;20014;-74
2023/09/02 12:09:50;;;;;;;2.60;1.27;;;35.60;30.30;;;;;;7563620;23;20109;-74
2023/09/02 12:12:54;;;;;;;2.55;1.50;;;35.90;30.20;;;;;;7564020;23;20169;-75
2023/09/02 12:15:55;;;;;;;1.77;1.30;;;36.10;29.50;;;;;;7590837;23;20029;-74
2023/09/02 12:18:55;;;;;;;2.95;1.45;;;36.30;29.00;;;;;;7564909;23;20105;-74
2023/09/02 12:21:56;;;;;;;2.50;1.45;;;36.50;28.80;;;;;;7590281;23;20076;-74
2023/09/02 12:24:57;;;;;;;3.55;1.40;;;36.60;28.70;;;;;;7564306;23;20320;-74
2023/09/02 12:28:12;;;;;;;3.72;1.58;;;37.00;28.50;;;;;;7563591;23;20030;-75
2023/09/02 12:31:16;;;;;;;1.92;1.40;;;37.40;28.40;;;;;;7590378;23;20010;-75
2023/09/02 12:34:17;;;;;;;2.78;1.60;;;37.80;28.00;;;;;;7566069;23;20009;-74
2023/09/02 12:37:22;;;;;;;2.10;1.42;;;38.40;27.70;;;;;;7566835;23;20033;-75
2023/09/02 12:40:23;;;;;;;3.13;1.45;;;39.10;27.00;;;;;;7565595;23;20021;-74
2023/09/02 12:43:26;;;;;;;4.47;1.50;;;39.60;26.30;;;;;;7565956;23;20038;-75
2023/09/02 12:46:27;;;;;;;3.30;1.63;;;39.80;26.00;;;;;;7591578;23;20020;-77
2023/09/02 12:49:31;;;;;;;3.55;1.52;;;40.20;25.80;;;;;;7565742;23;20002;-75
2023/09/02 12:52:33;;;;;;;2.83;1.55;;;40.50;25.30;;;;;;7592191;23;20113;-76
2023/09/02 12:55:40;;;;;;;2.45;1.38;;;40.90;25.10;;;;;;7566086;23;20034;-75
2023/09/02 12:58:41;;;;;;;2.10;1.30;;;41.20;24.80;;;;;;7592761;23;20404;-71
2023/09/02 13:01:42;;;;;;;5.70;1.73;;;41.50;24.50;;;;;;7592481;23;20070;-75
2023/09/02 13:04:43;;;;;;;4.38;2.03;;;41.50;24.60;;;;;;7590810;23;20033;-75
2023/09/02 13:07:44;;;;;;;5.20;1.42;;;41.40;24.30;;;;;;7591611;23;20384;-76
2023/09/02 13:10:46;;;;;;;2.25;1.42;;;41.50;24.40;;;;;;7591930;23;20026;-74
2023/09/02 13:13:47;;;;;;;2.55;1.60;;;41.70;24.30;;;;;;7565834;23;20396;-74
2023/09/02 13:16:48;;;;;;;3.63;1.40;;;41.80;24.10;;;;;;7566407;23;20085;-75
2023/09/02 13:19:51;;;;;;;2.17;1.50;;;41.90;24.00;;;;;;7592026;23;20731;-74
2023/09/02 13:22:51;;;;;;;9.73;1.60;;;42.30;23.60;;;;;;7592109;23;20365;-75
2023/09/02 13:25:52;;;;;;;3.10;1.30;;;42.70;23.40;;;;;;7591820;23;20121;-74
2023/09/02 13:28:53;;;;;;;2.78;1.30;;;42.90;23.20;;;;;;7591873;23;20699;-77
2023/09/02 13:31:57;;;;;;;2.42;1.30;;;42.90;23.10;;;;;;7566257;23;20112;-75
2023/09/02 13:35:14;;;;;;;2.67;1.23;;;43.20;23.00;;;;;;7592085;23;20014;-75
2023/09/02 13:38:20;;;;;;;2.80;2.00;;;43.60;22.60;;;;;;7592243;23;20136;-75
2023/09/02 13:41:21;;;;;;;3.58;1.52;;;43.80;22.50;;;;;;7591586;23;20013;-75
2023/09/02 13:44:22;;;;;;;5.00;1.48;;;44.00;22.30;;;;;;7565583;23;20009;-76
2023/09/02 13:47:23;;;;;;;3.10;1.20;;;44.00;22.30;;;;;;7592514;23;20052;-75
2023/09/02 13:50:24;;;;;;;1.55;1.20;;;43.90;22.30;;;;;;7565267;23;20827;-75
2023/09/02 13:53:26;;;;;;;3.15;1.60;;;43.40;22.50;;;;;;7592190;23;20021;-74
2023/09/02 13:56:27;;;;;;;2.08;1.38;;;43.10;22.70;;;;;;7564924;23;20010;-75
2023/09/02 13:59:28;;;;;;;2.22;1.25;;;43.20;22.60;;;;;;7591486;23;20029;-76
2023/09/02 14:02:31;;;;;;;7.88;2.00;;;43.20;22.50;;;;;;7590836;23;20018;-77
2023/09/02 14:05:32;;;;;;;2.30;1.50;;;42.40;23.10;;;;;;7591388;23;20020;-74
2023/09/02 14:08:41;;;;;;;3.55;1.30;;;41.10;24.20;;;;;;7565345;23;20009;-75
2023/09/02 14:11:42;;;;;;;3.92;1.33;;;39.70;25.20;;;;;;7591376;23;20114;-75
2023/09/02 14:14:43;;;;;;;2.42;1.58;;;38.50;26.40;;;;;;7591628;23;20585;-74
2023/09/02 14:17:44;;;;;;;4.70;1.30;;;37.50;27.30;;;;;;7591416;23;20009;-74
2023/09/02 14:20:45;;;;;;;2.38;1.55;;;36.70;28.10;;;;;;7591163;23;20006;-73
2023/09/02 14:23:46;;;;;;;2.60;1.60;;;36.00;28.80;;;;;;7591305;23;20027;-74
2023/09/02 14:26:46;;;;;;;2.83;1.40;;;35.30;29.60;;;;;;7590748;23;20014;-74
2023/09/02 14:29:47;;;;;;;2.90;1.60;;;34.80;30.30;;;;;;7590770;23;20052;-75
2023/09/02 14:32:48;;;;;;;4.40;1.33;;;34.30;31.00;;;;;;7541001;23;20041;-73
2023/09/02 14:35:49;;;;;;;3.63;1.70;;;34.00;31.50;;;;;;7564040;23;20108;-73
2023/09/02 14:38:50;;;;;;;2.92;1.40;;;33.70;32.00;;;;;;7590497;23;20018;-74
2023/09/02 14:41:51;;;;;;;1.85;1.30;;;33.40;32.40;;;;;;7590084;23;20012;-73
2023/09/02 14:44:56;;;;;;;3.83;1.65;;;33.30;32.80;;;;;;7564468;23;20010;-76
2023/09/02 14:47:57;;;;;;;2.40;1.40;;;33.00;33.20;;;;;;7564272;23;20168;-75
2023/09/02 14:50:59;;;;;;;2.28;1.42;;;32.80;33.70;;;;;;7589831;23;20010;-74
2023/09/02 14:54:01;;;;;;;4.25;1.67;;;32.70;34.10;;;;;;7590712;23;20622;-74
2023/09/02 14:57:01;;;;;;;2.95;1.67;;;32.60;34.20;;;;;;7590320;23;20010;-75
2023/09/02 15:00:04;;;;;;;2.88;1.23;;;32.50;34.10;;;;;;7539462;23;20132;-74
2023/09/02 15:03:06;;;;;;;2.53;1.23;;;32.50;34.40;;;;;;7563445;23;20571;-74
2023/09/02 15:06:07;;;;;;;3.13;1.67;;;32.40;34.50;;;;;;7563393;23;20033;-75
2023/09/02 15:09:08;;;;;;;1.98;1.30;;;32.40;34.70;;;;;;7539701;23;20099;-74
2023/09/02 15:12:10;;;;;;;3.67;1.65;;;32.50;34.80;;;;;;7590575;23;20021;-73
2023/09/02 15:15:12;;;;;;;3.70;1.42;;;32.30;34.90;;;;;;7563557;23;20121;-74
2023/09/02 15:18:19;;;;;;;2.90;1.50;;;32.30;34.80;;;;;;7589929;23;20014;-76
2023/09/02 15:21:19;;;;;;;1.85;1.48;;;32.40;34.90;;;;;;7563621;23;20024;-74
2023/09/02 15:24:27;;;;;;;2.28;1.50;;;32.50;34.80;;;;;;7590963;23;20017;-74
2023/09/02 15:27:29;;;;;;;3.78;1.70;;;32.60;34.70;;;;;;7590037;23;20026;-75
2023/09/02 15:30:31;;;;;;;2.30;1.60;;;32.80;34.70;;;;;;7589815;23;20074;-74
2023/09/02 15:33:31;;;;;;;2.15;1.30;;;32.90;34.70;;;;;;7563755;23;20006;-75
2023/09/02 15:36:33;;;;;;;6.53;1.70;;;32.90;34.80;;;;;;7590920;23;20058;-75
2023/09/02 15:39:34;;;;;;;3.35;1.40;;;33.00;34.90;;;;;;7564004;23;20101;-74
2023/09/02 15:42:35;;;;;;;2.63;1.30;;;33.00;35.00;;;;;;7590959;23;20380;-75
2023/09/02 15:45:39;;;;;;;6.63;1.55;;;33.00;35.00;;;;;;7590980;23;20113;-74
2023/09/02 15:48:40;;;;;;;5.38;1.30;;;32.90;35.10;;;;;;7564019;23;20058;-74